sensor_id;sensor_type;location;lat;lon;timestamp;P1;durP1;ratioP1;P2;durP2;ratioP2
55800;SDS011;41730;51.960;20.158;2023-04-01T00:02:30;24.20;;;15.00;;
55800;SDS011;41730;51.960;20.158;2023-04-01T00:05:00;22.30;;;13.90;;
55800;SDS011;41730;51.960;20.158;2023-04-01T00:07:29;20.50;;;14.40;;
55800;SDS011;41730;51.960;20.158;2023-04-01T00:09:58;23.70;;;14.40;;
55800;SDS011;41730;51.960;20.158;2023-04-01T00:12:27;21.60;;;13.80;;
55800;SDS011;41730;51.960;20.158;2023-04-01T00:14:56;24.50;;;14.40;;
55800;SDS011;41730;51.960;20.158;2023-04-01T00:17:26;20.90;;;13.40;;
55800;SDS011;41730;51.960;20.158;2023-04-01T00:19:55;19.70;;;12.90;;
55800;SDS011;41730;51.960;20.158;2023-04-01T00:22:25;18.70;;;12.50;;
55800;SDS011;41730;51.960;20.158;2023-04-01T00:24:54;19.90;;;13.10;;
55800;SDS011;41730;51.960;20.158;2023-04-01T00:27:23;21.50;;;13.60;;
55800;SDS011;41730;51.960;20.158;2023-04-01T00:29:51;18.40;;;12.70;;
55800;SDS011;41730;51.960;20.158;2023-04-01T00:32:20;20.10;;;12.80;;
55800;SDS011;41730;51.960;20.158;2023-04-01T00:34:50;18.80;;;12.10;;
55800;SDS011;41730;51.960;20.158;2023-04-01T00:37:20;18.60;;;12.50;;
55800;SDS011;41730;51.960;20.158;2023-04-01T00:39:49;20.60;;;12.90;;
55800;SDS011;41730;51.960;20.158;2023-04-01T00:42:18;19.30;;;12.80;;
55800;SDS011;41730;51.960;20.158;2023-04-01T00:44:49;20.20;;;12.60;;
55800;SDS011;41730;51.960;20.158;2023-04-01T00:47:19;21.60;;;13.00;;
55800;SDS011;41730;51.960;20.158;2023-04-01T00:49:49;20.30;;;12.90;;
55800;SDS011;41730;51.960;20.158;2023-04-01T00:52:22;21.30;;;13.30;;
55800;SDS011;41730;51.960;20.158;2023-04-01T00:54:54;21.20;;;12.80;;
55800;SDS011;41730;51.960;20.158;2023-04-01T00:57:29;21.10;;;13.30;;
55800;SDS011;41730;51.960;20.158;2023-04-01T01:00:04;21.20;;;13.30;;
55800;SDS011;41730;51.960;20.158;2023-04-01T01:02:36;21.90;;;13.00;;
55800;SDS011;41730;51.960;20.158;2023-04-01T01:05:09;20.50;;;13.40;;
55800;SDS011;41730;51.960;20.158;2023-04-01T01:07:41;21.50;;;13.60;;
55800;SDS011;41730;51.960;20.158;2023-04-01T01:10:20;23.00;;;14.00;;
55800;SDS011;41730;51.960;20.158;2023-04-01T01:12:59;22.80;;;13.50;;
55800;SDS011;41730;51.960;20.158;2023-04-01T01:15:34;20.30;;;14.10;;
55800;SDS011;41730;51.960;20.158;2023-04-01T01:18:09;21.30;;;13.60;;
55800;SDS011;41730;51.960;20.158;2023-04-01T01:24:02;21.00;;;13.30;;
55800;SDS011;41730;51.960;20.158;2023-04-01T01:26:46;20.30;;;13.30;;
55800;SDS011;41730;51.960;20.158;2023-04-01T01:29:28;21.00;;;13.40;;
55800;SDS011;41730;51.960;20.158;2023-04-01T01:32:15;22.40;;;13.80;;
55800;SDS011;41730;51.960;20.158;2023-04-01T01:34:52;20.50;;;12.90;;
55800;SDS011;41730;51.960;20.158;2023-04-01T01:37:25;18.50;;;12.20;;
55800;SDS011;41730;51.960;20.158;2023-04-01T01:39:58;21.20;;;13.40;;
55800;SDS011;41730;51.960;20.158;2023-04-01T01:42:29;23.60;;;13.60;;
55800;SDS011;41730;51.960;20.158;2023-04-01T01:45:02;22.00;;;13.50;;
55800;SDS011;41730;51.960;20.158;2023-04-01T01:47:35;21.30;;;13.10;;
55800;SDS011;41730;51.960;20.158;2023-04-01T01:50:07;22.30;;;14.30;;
55800;SDS011;41730;51.960;20.158;2023-04-01T01:52:37;22.30;;;13.70;;
55800;SDS011;41730;51.960;20.158;2023-04-01T01:57:55;24.40;;;14.60;;
55800;SDS011;41730;51.960;20.158;2023-04-01T02:00:26;22.30;;;13.80;;
55800;SDS011;41730;51.960;20.158;2023-04-01T02:02:56;21.50;;;12.70;;
55800;SDS011;41730;51.960;20.158;2023-04-01T02:05:26;20.40;;;13.50;;
55800;SDS011;41730;51.960;20.158;2023-04-01T02:07:59;25.20;;;14.20;;
55800;SDS011;41730;51.960;20.158;2023-04-01T02:10:34;20.80;;;14.20;;
55800;SDS011;41730;51.960;20.158;2023-04-01T02:13:09;24.70;;;14.20;;
55800;SDS011;41730;51.960;20.158;2023-04-01T02:15:44;24.50;;;13.80;;
55800;SDS011;41730;51.960;20.158;2023-04-01T02:18:15;23.20;;;14.10;;
55800;SDS011;41730;51.960;20.158;2023-04-01T02:20:46;22.20;;;14.20;;
55800;SDS011;41730;51.960;20.158;2023-04-01T02:23:16;24.50;;;14.50;;
55800;SDS011;41730;51.960;20.158;2023-04-01T02:25:45;22.10;;;13.40;;
55800;SDS011;41730;51.960;20.158;2023-04-01T02:28:15;22.50;;;12.90;;
55800;SDS011;41730;51.960;20.158;2023-04-01T02:30:47;22.50;;;13.40;;
55800;SDS011;41730;51.960;20.158;2023-04-01T02:33:19;20.00;;;12.60;;
55800;SDS011;41730;51.960;20.158;2023-04-01T02:35:49;20.70;;;13.00;;
55800;SDS011;41730;51.960;20.158;2023-04-01T02:38:18;21.20;;;12.50;;
55800;SDS011;41730;51.960;20.158;2023-04-01T02:40:48;18.40;;;12.40;;
55800;SDS011;41730;51.960;20.158;2023-04-01T02:43:18;20.80;;;12.50;;
55800;SDS011;41730;51.960;20.158;2023-04-01T02:45:50;19.30;;;11.80;;
55800;SDS011;41730;51.960;20.158;2023-04-01T02:48:19;19.00;;;12.20;;
55800;SDS011;41730;51.960;20.158;2023-04-01T02:50:48;18.40;;;12.20;;
55800;SDS011;41730;51.960;20.158;2023-04-01T02:53:17;18.90;;;11.60;;
55800;SDS011;41730;51.960;20.158;2023-04-01T02:55:46;23.90;;;12.90;;
55800;SDS011;41730;51.960;20.158;2023-04-01T02:58:17;18.10;;;11.60;;
55800;SDS011;41730;51.960;20.158;2023-04-01T03:00:46;19.40;;;11.90;;
55800;SDS011;41730;51.960;20.158;2023-04-01T03:03:15;19.30;;;11.50;;
55800;SDS011;41730;51.960;20.158;2023-04-01T03:05:44;17.70;;;11.40;;
55800;SDS011;41730;51.960;20.158;2023-04-01T03:08:13;16.90;;;11.60;;
55800;SDS011;41730;51.960;20.158;2023-04-01T03:10:42;19.20;;;11.50;;
55800;SDS011;41730;51.960;20.158;2023-04-01T03:13:11;22.50;;;13.40;;
55800;SDS011;41730;51.960;20.158;2023-04-01T03:15:40;18.70;;;12.20;;
55800;SDS011;41730;51.960;20.158;2023-04-01T03:18:08;21.30;;;11.80;;
55800;SDS011;41730;51.960;20.158;2023-04-01T03:20:37;21.50;;;12.00;;
55800;SDS011;41730;51.960;20.158;2023-04-01T03:23:08;19.60;;;12.40;;
55800;SDS011;41730;51.960;20.158;2023-04-01T03:25:37;22.10;;;12.50;;
55800;SDS011;41730;51.960;20.158;2023-04-01T03:28:07;20.70;;;13.20;;
55800;SDS011;41730;51.960;20.158;2023-04-01T03:30:38;22.80;;;13.40;;
55800;SDS011;41730;51.960;20.158;2023-04-01T03:33:11;23.50;;;14.00;;
55800;SDS011;41730;51.960;20.158;2023-04-01T03:35:47;23.30;;;14.30;;
55800;SDS011;41730;51.960;20.158;2023-04-01T03:38:28;24.60;;;14.90;;
55800;SDS011;41730;51.960;20.158;2023-04-01T03:40:58;21.70;;;12.90;;
55800;SDS011;41730;51.960;20.158;2023-04-01T03:43:27;24.00;;;14.50;;
55800;SDS011;41730;51.960;20.158;2023-04-01T03:45:57;26.70;;;15.40;;
55800;SDS011;41730;51.960;20.158;2023-04-01T03:48:26;22.30;;;14.20;;
55800;SDS011;41730;51.960;20.158;2023-04-01T03:50:56;25.40;;;15.10;;
55800;SDS011;41730;51.960;20.158;2023-04-01T03:53:25;27.10;;;16.00;;
55800;SDS011;41730;51.960;20.158;2023-04-01T03:55:56;24.40;;;14.60;;
55800;SDS011;41730;51.960;20.158;2023-04-01T03:58:26;30.50;;;19.30;;
55800;SDS011;41730;51.960;20.158;2023-04-01T04:00:55;39.80;;;23.30;;
55800;SDS011;41730;51.960;20.158;2023-04-01T04:03:25;43.00;;;24.10;;
55800;SDS011;41730;51.960;20.158;2023-04-01T04:05:55;39.20;;;22.90;;
55800;SDS011;41730;51.960;20.158;2023-04-01T04:08:24;37.40;;;21.10;;
55800;SDS011;41730;51.960;20.158;2023-04-01T04:10:55;35.40;;;20.20;;
55800;SDS011;41730;51.960;20.158;2023-04-01T04:13:25;33.50;;;18.20;;
55800;SDS011;41730;51.960;20.158;2023-04-01T04:15:55;30.10;;;18.60;;
55800;SDS011;41730;51.960;20.158;2023-04-01T04:18:25;35.40;;;19.00;;
55800;SDS011;41730;51.960;20.158;2023-04-01T04:20:55;36.30;;;19.00;;
55800;SDS011;41730;51.960;20.158;2023-04-01T04:23:24;33.60;;;18.70;;
55800;SDS011;41730;51.960;20.158;2023-04-01T04:25:56;35.20;;;19.40;;
55800;SDS011;41730;51.960;20.158;2023-04-01T04:28:26;41.10;;;21.40;;
55800;SDS011;41730;51.960;20.158;2023-04-01T04:30:56;37.60;;;21.00;;
55800;SDS011;41730;51.960;20.158;2023-04-01T04:33:26;39.50;;;20.50;;
55800;SDS011;41730;51.960;20.158;2023-04-01T04:35:56;39.70;;;20.90;;
55800;SDS011;41730;51.960;20.158;2023-04-01T04:38:26;41.70;;;20.80;;
55800;SDS011;41730;51.960;20.158;2023-04-01T04:40:55;43.10;;;22.40;;
55800;SDS011;41730;51.960;20.158;2023-04-01T04:43:25;48.70;;;23.60;;
55800;SDS011;41730;51.960;20.158;2023-04-01T04:45:55;42.60;;;23.70;;
55800;SDS011;41730;51.960;20.158;2023-04-01T04:48:25;45.00;;;23.70;;
55800;SDS011;41730;51.960;20.158;2023-04-01T04:50:54;41.60;;;23.00;;
55800;SDS011;41730;51.960;20.158;2023-04-01T04:53:23;39.80;;;21.50;;
55800;SDS011;41730;51.960;20.158;2023-04-01T04:55:53;42.00;;;21.80;;
55800;SDS011;41730;51.960;20.158;2023-04-01T04:58:22;38.40;;;21.10;;
55800;SDS011;41730;51.960;20.158;2023-04-01T05:00:51;35.10;;;19.50;;
55800;SDS011;41730;51.960;20.158;2023-04-01T05:03:20;41.20;;;23.50;;
55800;SDS011;41730;51.960;20.158;2023-04-01T05:05:51;39.70;;;21.10;;
55800;SDS011;41730;51.960;20.158;2023-04-01T05:08:21;44.10;;;22.70;;
55800;SDS011;41730;51.960;20.158;2023-04-01T05:10:51;40.80;;;21.80;;
55800;SDS011;41730;51.960;20.158;2023-04-01T05:13:19;43.20;;;22.60;;
55800;SDS011;41730;51.960;20.158;2023-04-01T05:15:50;43.40;;;21.30;;
55800;SDS011;41730;51.960;20.158;2023-04-01T05:18:19;42.00;;;21.40;;
55800;SDS011;41730;51.960;20.158;2023-04-01T05:20:48;41.20;;;22.10;;
55800;SDS011;41730;51.960;20.158;2023-04-01T05:23:20;39.90;;;22.00;;
55800;SDS011;41730;51.960;20.158;2023-04-01T05:25:50;36.40;;;21.70;;
55800;SDS011;41730;51.960;20.158;2023-04-01T05:28:19;38.20;;;21.10;;
55800;SDS011;41730;51.960;20.158;2023-04-01T05:30:49;38.50;;;21.70;;
55800;SDS011;41730;51.960;20.158;2023-04-01T05:33:19;39.30;;;21.50;;
55800;SDS011;41730;51.960;20.158;2023-04-01T05:35:48;40.30;;;22.10;;
55800;SDS011;41730;51.960;20.158;2023-04-01T05:38:17;40.70;;;21.80;;
55800;SDS011;41730;51.960;20.158;2023-04-01T05:40:46;39.50;;;21.20;;
55800;SDS011;41730;51.960;20.158;2023-04-01T05:43:16;36.40;;;21.20;;
55800;SDS011;41730;51.960;20.158;2023-04-01T05:45:46;35.10;;;20.40;;
55800;SDS011;41730;51.960;20.158;2023-04-01T05:48:17;42.10;;;23.40;;
55800;SDS011;41730;51.960;20.158;2023-04-01T05:50:47;39.80;;;22.80;;
55800;SDS011;41730;51.960;20.158;2023-04-01T05:53:17;39.30;;;21.00;;
55800;SDS011;41730;51.960;20.158;2023-04-01T05:55:47;37.20;;;22.00;;
55800;SDS011;41730;51.960;20.158;2023-04-01T05:58:16;34.80;;;20.70;;
55800;SDS011;41730;51.960;20.158;2023-04-01T06:00:46;33.90;;;20.60;;
55800;SDS011;41730;51.960;20.158;2023-04-01T06:03:34;34.50;;;18.90;;
55800;SDS011;41730;51.960;20.158;2023-04-01T06:06:04;36.10;;;20.90;;
55800;SDS011;41730;51.960;20.158;2023-04-01T06:08:39;34.90;;;21.20;;
55800;SDS011;41730;51.960;20.158;2023-04-01T06:11:14;34.10;;;20.10;;
55800;SDS011;41730;51.960;20.158;2023-04-01T06:13:58;36.20;;;20.60;;
55800;SDS011;41730;51.960;20.158;2023-04-01T06:16:42;36.90;;;21.10;;
55800;SDS011;41730;51.960;20.158;2023-04-01T06:19:24;31.60;;;19.40;;
55800;SDS011;41730;51.960;20.158;2023-04-01T06:22:13;35.60;;;21.30;;
55800;SDS011;41730;51.960;20.158;2023-04-01T06:25:06;31.30;;;19.00;;
55800;SDS011;41730;51.960;20.158;2023-04-01T06:27:54;29.10;;;17.90;;
55800;SDS011;41730;51.960;20.158;2023-04-01T06:30:37;34.30;;;20.60;;
55800;SDS011;41730;51.960;20.158;2023-04-01T06:33:18;33.30;;;20.80;;
55800;SDS011;41730;51.960;20.158;2023-04-01T06:36:00;35.00;;;20.50;;
55800;SDS011;41730;51.960;20.158;2023-04-01T06:38:44;32.20;;;19.10;;
55800;SDS011;41730;51.960;20.158;2023-04-01T06:44:49;35.50;;;21.70;;
55800;SDS011;41730;51.960;20.158;2023-04-01T06:47:30;30.20;;;19.30;;
55800;SDS011;41730;51.960;20.158;2023-04-01T06:50:18;30.80;;;19.60;;
55800;SDS011;41730;51.960;20.158;2023-04-01T06:52:55;28.70;;;18.90;;
55800;SDS011;41730;51.960;20.158;2023-04-01T06:55:34;29.40;;;18.50;;
55800;SDS011;41730;51.960;20.158;2023-04-01T06:58:13;28.50;;;17.50;;
55800;SDS011;41730;51.960;20.158;2023-04-01T07:00:49;33.90;;;19.60;;
55800;SDS011;41730;51.960;20.158;2023-04-01T07:03:21;32.60;;;19.70;;
55800;SDS011;41730;51.960;20.158;2023-04-01T07:05:57;34.30;;;18.70;;
55800;SDS011;41730;51.960;20.158;2023-04-01T07:08:31;35.00;;;18.80;;
55800;SDS011;41730;51.960;20.158;2023-04-01T07:11:05;33.40;;;19.60;;
55800;SDS011;41730;51.960;20.158;2023-04-01T07:13:39;30.40;;;18.70;;
55800;SDS011;41730;51.960;20.158;2023-04-01T07:16:13;33.70;;;19.40;;
55800;SDS011;41730;51.960;20.158;2023-04-01T07:21:25;31.70;;;19.90;;
55800;SDS011;41730;51.960;20.158;2023-04-01T07:24:00;32.20;;;19.90;;
55800;SDS011;41730;51.960;20.158;2023-04-01T07:26:34;34.80;;;21.00;;
55800;SDS011;41730;51.960;20.158;2023-04-01T07:29:08;33.40;;;20.50;;
55800;SDS011;41730;51.960;20.158;2023-04-01T07:31:44;31.20;;;20.20;;
55800;SDS011;41730;51.960;20.158;2023-04-01T07:34:22;33.10;;;19.30;;
55800;SDS011;41730;51.960;20.158;2023-04-01T07:36:54;30.10;;;18.90;;
55800;SDS011;41730;51.960;20.158;2023-04-01T07:39:33;33.70;;;19.80;;
55800;SDS011;41730;51.960;20.158;2023-04-01T07:42:13;27.50;;;18.20;;
55800;SDS011;41730;51.960;20.158;2023-04-01T07:44:51;27.40;;;17.10;;
55800;SDS011;41730;51.960;20.158;2023-04-01T07:47:39;29.80;;;18.50;;
55800;SDS011;41730;51.960;20.158;2023-04-01T07:50:20;30.60;;;19.00;;
55800;SDS011;41730;51.960;20.158;2023-04-01T07:52:59;29.20;;;18.50;;
55800;SDS011;41730;51.960;20.158;2023-04-01T07:55:39;30.70;;;18.90;;
55800;SDS011;41730;51.960;20.158;2023-04-01T07:58:17;26.30;;;17.90;;
55800;SDS011;41730;51.960;20.158;2023-04-01T08:00:56;28.40;;;18.00;;
55800;SDS011;41730;51.960;20.158;2023-04-01T08:03:33;29.30;;;19.20;;
55800;SDS011;41730;51.960;20.158;2023-04-01T08:06:18;30.40;;;19.60;;
55800;SDS011;41730;51.960;20.158;2023-04-01T08:08:56;33.40;;;20.30;;
55800;SDS011;41730;51.960;20.158;2023-04-01T08:11:34;27.10;;;18.00;;
55800;SDS011;41730;51.960;20.158;2023-04-01T08:14:16;27.70;;;16.30;;
55800;SDS011;41730;51.960;20.158;2023-04-01T08:16:54;30.10;;;17.80;;
55800;SDS011;41730;51.960;20.158;2023-04-01T08:19:34;29.00;;;17.70;;
55800;SDS011;41730;51.960;20.158;2023-04-01T08:22:20;22.70;;;16.10;;
55800;SDS011;41730;51.960;20.158;2023-04-01T08:24:54;29.20;;;18.00;;
55800;SDS011;41730;51.960;20.158;2023-04-01T08:27:31;27.80;;;17.70;;
55800;SDS011;41730;51.960;20.158;2023-04-01T08:30:06;33.70;;;20.30;;
55800;SDS011;41730;51.960;20.158;2023-04-01T08:32:46;35.00;;;22.10;;
55800;SDS011;41730;51.960;20.158;2023-04-01T08:35:24;30.50;;;20.40;;
55800;SDS011;41730;51.960;20.158;2023-04-01T08:38:01;26.10;;;17.60;;
55800;SDS011;41730;51.960;20.158;2023-04-01T08:40:45;36.80;;;22.80;;
55800;SDS011;41730;51.960;20.158;2023-04-01T08:43:36;29.70;;;18.30;;
55800;SDS011;41730;51.960;20.158;2023-04-01T08:46:21;34.20;;;20.30;;
55800;SDS011;41730;51.960;20.158;2023-04-01T08:49:12;33.70;;;21.50;;
55800;SDS011;41730;51.960;20.158;2023-04-01T08:51:57;29.90;;;17.70;;
55800;SDS011;41730;51.960;20.158;2023-04-01T08:57:36;29.90;;;18.60;;
55800;SDS011;41730;51.960;20.158;2023-04-01T09:00:20;36.80;;;21.70;;
55800;SDS011;41730;51.960;20.158;2023-04-01T09:12:21;19.30;;;13.60;;
55800;SDS011;41730;51.960;20.158;2023-04-01T09:15:20;23.20;;;15.30;;
55800;SDS011;41730;51.960;20.158;2023-04-01T09:18:14;19.60;;;14.30;;
55800;SDS011;41730;51.960;20.158;2023-04-01T09:27:11;19.90;;;12.70;;
55800;SDS011;41730;51.960;20.158;2023-04-01T09:29:57;17.20;;;11.90;;
55800;SDS011;41730;51.960;20.158;2023-04-01T09:32:59;19.90;;;12.50;;
55800;SDS011;41730;51.960;20.158;2023-04-01T09:36:03;16.00;;;10.60;;
55800;SDS011;41730;51.960;20.158;2023-04-01T09:38:42;13.10;;;8.90;;
55800;SDS011;41730;51.960;20.158;2023-04-01T09:41:26;19.70;;;11.70;;
55800;SDS011;41730;51.960;20.158;2023-04-01T09:44:01;12.10;;;8.30;;
55800;SDS011;41730;51.960;20.158;2023-04-01T09:46:37;12.20;;;8.30;;
55800;SDS011;41730;51.960;20.158;2023-04-01T09:49:24;11.50;;;6.80;;
55800;SDS011;41730;51.960;20.158;2023-04-01T09:52:18;10.10;;;6.50;;
55800;SDS011;41730;51.960;20.158;2023-04-01T09:55:02;9.50;;;6.30;;
55800;SDS011;41730;51.960;20.158;2023-04-01T10:00:48;9.20;;;6.60;;
55800;SDS011;41730;51.960;20.158;2023-04-01T10:06:45;11.10;;;8.00;;
55800;SDS011;41730;51.960;20.158;2023-04-01T10:12:55;13.40;;;9.80;;
55800;SDS011;41730;51.960;20.158;2023-04-01T10:18:59;18.70;;;12.30;;
55800;SDS011;41730;51.960;20.158;2023-04-01T10:22:13;24.70;;;14.50;;
55800;SDS011;41730;51.960;20.158;2023-04-01T10:25:02;25.30;;;14.30;;
55800;SDS011;41730;51.960;20.158;2023-04-01T10:27:50;26.70;;;14.60;;
55800;SDS011;41730;51.960;20.158;2023-04-01T10:31:12;28.40;;;15.50;;
55800;SDS011;41730;51.960;20.158;2023-04-01T10:34:09;37.20;;;18.80;;
55800;SDS011;41730;51.960;20.158;2023-04-01T10:37:04;26.70;;;15.40;;
55800;SDS011;41730;51.960;20.158;2023-04-01T10:46:06;20.00;;;12.60;;
55800;SDS011;41730;51.960;20.158;2023-04-01T10:52:31;11.20;;;7.00;;
55800;SDS011;41730;51.960;20.158;2023-04-01T10:55:50;15.10;;;6.90;;
55800;SDS011;41730;51.960;20.158;2023-04-01T11:01:44;18.30;;;9.30;;
55800;SDS011;41730;51.960;20.158;2023-04-01T11:04:44;14.60;;;7.90;;
55800;SDS011;41730;51.960;20.158;2023-04-01T11:08:01;18.20;;;8.90;;
55800;SDS011;41730;51.960;20.158;2023-04-01T11:11:05;23.60;;;9.90;;
55800;SDS011;41730;51.960;20.158;2023-04-01T11:17:19;13.30;;;7.20;;
55800;SDS011;41730;51.960;20.158;2023-04-01T11:20:14;11.00;;;5.50;;
55800;SDS011;41730;51.960;20.158;2023-04-01T11:23:15;5.30;;;3.00;;
55800;SDS011;41730;51.960;20.158;2023-04-01T11:26:01;7.90;;;4.00;;
55800;SDS011;41730;51.960;20.158;2023-04-01T11:28:42;7.00;;;4.30;;
55800;SDS011;41730;51.960;20.158;2023-04-01T11:31:34;7.10;;;3.70;;
55800;SDS011;41730;51.960;20.158;2023-04-01T11:34:13;9.10;;;4.70;;
55800;SDS011;41730;51.960;20.158;2023-04-01T11:36:52;5.10;;;3.30;;
55800;SDS011;41730;51.960;20.158;2023-04-01T11:39:41;6.90;;;4.50;;
55800;SDS011;41730;51.960;20.158;2023-04-01T11:42:30;5.70;;;3.00;;
55800;SDS011;41730;51.960;20.158;2023-04-01T11:45:14;3.70;;;2.20;;
55800;SDS011;41730;51.960;20.158;2023-04-01T11:48:07;5.60;;;3.10;;
55800;SDS011;41730;51.960;20.158;2023-04-01T11:50:55;4.40;;;2.50;;
55800;SDS011;41730;51.960;20.158;2023-04-01T11:53:49;7.80;;;4.10;;
55800;SDS011;41730;51.960;20.158;2023-04-01T11:56:42;6.40;;;3.60;;
55800;SDS011;41730;51.960;20.158;2023-04-01T11:59:32;6.20;;;3.70;;
55800;SDS011;41730;51.960;20.158;2023-04-01T12:02:18;6.90;;;4.40;;
55800;SDS011;41730;51.960;20.158;2023-04-01T12:08:12;5.30;;;2.50;;
55800;SDS011;41730;51.960;20.158;2023-04-01T12:10:55;4.70;;;2.10;;
55800;SDS011;41730;51.960;20.158;2023-04-01T12:13:31;3.30;;;1.80;;
55800;SDS011;41730;51.960;20.158;2023-04-01T12:19:08;3.50;;;2.40;;
55800;SDS011;41730;51.960;20.158;2023-04-01T12:21:48;6.10;;;3.80;;
55800;SDS011;41730;51.960;20.158;2023-04-01T12:27:27;4.10;;;2.60;;
55800;SDS011;41730;51.960;20.158;2023-04-01T12:32:55;5.30;;;3.00;;
55800;SDS011;41730;51.960;20.158;2023-04-01T12:35:43;4.20;;;2.60;;
55800;SDS011;41730;51.960;20.158;2023-04-01T12:38:25;3.50;;;2.00;;
55800;SDS011;41730;51.960;20.158;2023-04-01T12:41:10;3.30;;;2.00;;
55800;SDS011;41730;51.960;20.158;2023-04-01T12:43:57;4.30;;;2.60;;
55800;SDS011;41730;51.960;20.158;2023-04-01T12:46:40;5.20;;;3.10;;
55800;SDS011;41730;51.960;20.158;2023-04-01T12:49:27;6.90;;;4.10;;
55800;SDS011;41730;51.960;20.158;2023-04-01T12:52:12;5.60;;;3.40;;
55800;SDS011;41730;51.960;20.158;2023-04-01T12:54:57;4.50;;;3.30;;
55800;SDS011;41730;51.960;20.158;2023-04-01T13:00:56;5.70;;;3.70;;
55800;SDS011;41730;51.960;20.158;2023-04-01T13:03:41;6.60;;;3.70;;
55800;SDS011;41730;51.960;20.158;2023-04-01T13:06:22;4.70;;;2.80;;
55800;SDS011;41730;51.960;20.158;2023-04-01T13:09:03;5.00;;;2.60;;
55800;SDS011;41730;51.960;20.158;2023-04-01T13:11:48;4.70;;;2.60;;
55800;SDS011;41730;51.960;20.158;2023-04-01T13:14:50;4.60;;;2.40;;
55800;SDS011;41730;51.960;20.158;2023-04-01T13:17:41;3.30;;;2.40;;
55800;SDS011;41730;51.960;20.158;2023-04-01T13:20:20;3.80;;;2.60;;
55800;SDS011;41730;51.960;20.158;2023-04-01T13:23:05;4.10;;;2.60;;
55800;SDS011;41730;51.960;20.158;2023-04-01T13:25:47;3.20;;;2.50;;
55800;SDS011;41730;51.960;20.158;2023-04-01T13:28:40;3.70;;;2.40;;
55800;SDS011;41730;51.960;20.158;2023-04-01T13:31:20;4.40;;;3.00;;
55800;SDS011;41730;51.960;20.158;2023-04-01T13:34:00;4.70;;;2.80;;
55800;SDS011;41730;51.960;20.158;2023-04-01T13:36:42;4.60;;;3.30;;
55800;SDS011;41730;51.960;20.158;2023-04-01T13:39:25;6.00;;;3.40;;
55800;SDS011;41730;51.960;20.158;2023-04-01T13:42:09;3.90;;;2.80;;
55800;SDS011;41730;51.960;20.158;2023-04-01T13:44:44;4.00;;;2.30;;
55800;SDS011;41730;51.960;20.158;2023-04-01T13:47:22;4.30;;;2.40;;
55800;SDS011;41730;51.960;20.158;2023-04-01T13:50:03;4.40;;;3.00;;
55800;SDS011;41730;51.960;20.158;2023-04-01T13:52:47;5.40;;;3.40;;
55800;SDS011;41730;51.960;20.158;2023-04-01T13:55:40;6.10;;;3.30;;
55800;SDS011;41730;51.960;20.158;2023-04-01T13:58:31;3.40;;;2.20;;
55800;SDS011;41730;51.960;20.158;2023-04-01T14:01:13;3.00;;;2.00;;
55800;SDS011;41730;51.960;20.158;2023-04-01T14:03:55;2.80;;;1.90;;
55800;SDS011;41730;51.960;20.158;2023-04-01T14:06:34;4.90;;;2.90;;
55800;SDS011;41730;51.960;20.158;2023-04-01T14:09:21;4.20;;;2.00;;
55800;SDS011;41730;51.960;20.158;2023-04-01T14:12:04;4.90;;;2.50;;
55800;SDS011;41730;51.960;20.158;2023-04-01T14:14:46;3.00;;;1.70;;
55800;SDS011;41730;51.960;20.158;2023-04-01T14:17:36;1.90;;;1.10;;
55800;SDS011;41730;51.960;20.158;2023-04-01T14:20:26;4.10;;;0.90;;
55800;SDS011;41730;51.960;20.158;2023-04-01T14:23:15;2.10;;;0.90;;
55800;SDS011;41730;51.960;20.158;2023-04-01T14:26:06;3.30;;;1.60;;
55800;SDS011;41730;51.960;20.158;2023-04-01T14:28:45;3.30;;;1.10;;
55800;SDS011;41730;51.960;20.158;2023-04-01T14:31:34;3.20;;;1.20;;
55800;SDS011;41730;51.960;20.158;2023-04-01T14:34:19;3.50;;;1.20;;
55800;SDS011;41730;51.960;20.158;2023-04-01T14:36:58;2.70;;;1.50;;
55800;SDS011;41730;51.960;20.158;2023-04-01T14:39:46;2.60;;;1.40;;
55800;SDS011;41730;51.960;20.158;2023-04-01T14:42:45;4.30;;;1.30;;
55800;SDS011;41730;51.960;20.158;2023-04-01T14:45:29;2.90;;;1.50;;
55800;SDS011;41730;51.960;20.158;2023-04-01T14:48:17;2.20;;;1.30;;
55800;SDS011;41730;51.960;20.158;2023-04-01T14:50:53;3.70;;;2.30;;
55800;SDS011;41730;51.960;20.158;2023-04-01T14:53:30;4.10;;;2.10;;
55800;SDS011;41730;51.960;20.158;2023-04-01T14:56:05;4.50;;;2.40;;
55800;SDS011;41730;51.960;20.158;2023-04-01T14:58:42;5.20;;;2.60;;
55800;SDS011;41730;51.960;20.158;2023-04-01T15:01:16;4.30;;;2.60;;
55800;SDS011;41730;51.960;20.158;2023-04-01T15:04:14;3.60;;;1.90;;
55800;SDS011;41730;51.960;20.158;2023-04-01T15:07:06;4.50;;;2.30;;
55800;SDS011;41730;51.960;20.158;2023-04-01T15:09:51;4.00;;;2.30;;
55800;SDS011;41730;51.960;20.158;2023-04-01T15:12:30;5.30;;;2.70;;
55800;SDS011;41730;51.960;20.158;2023-04-01T15:15:17;3.30;;;2.30;;
55800;SDS011;41730;51.960;20.158;2023-04-01T15:18:05;4.20;;;2.40;;
55800;SDS011;41730;51.960;20.158;2023-04-01T15:23:43;3.80;;;2.80;;
55800;SDS011;41730;51.960;20.158;2023-04-01T15:26:21;4.80;;;2.90;;
55800;SDS011;41730;51.960;20.158;2023-04-01T15:29:06;4.90;;;3.10;;
55800;SDS011;41730;51.960;20.158;2023-04-01T15:31:48;5.30;;;3.20;;
55800;SDS011;41730;51.960;20.158;2023-04-01T15:34:30;4.20;;;2.80;;
55800;SDS011;41730;51.960;20.158;2023-04-01T15:37:07;6.10;;;3.40;;
55800;SDS011;41730;51.960;20.158;2023-04-01T15:39:43;5.10;;;3.40;;
55800;SDS011;41730;51.960;20.158;2023-04-01T15:42:25;5.90;;;3.40;;
55800;SDS011;41730;51.960;20.158;2023-04-01T15:45:13;4.40;;;2.90;;
55800;SDS011;41730;51.960;20.158;2023-04-01T15:48:02;6.50;;;3.90;;
55800;SDS011;41730;51.960;20.158;2023-04-01T15:50:50;6.10;;;4.00;;
55800;SDS011;41730;51.960;20.158;2023-04-01T15:53:37;7.80;;;5.20;;
55800;SDS011;41730;51.960;20.158;2023-04-01T15:56:39;9.60;;;6.20;;
55800;SDS011;41730;51.960;20.158;2023-04-01T15:59:17;9.10;;;6.00;;
55800;SDS011;41730;51.960;20.158;2023-04-01T16:01:58;9.70;;;5.90;;
55800;SDS011;41730;51.960;20.158;2023-04-01T16:04:43;8.40;;;5.70;;
55800;SDS011;41730;51.960;20.158;2023-04-01T16:07:21;9.80;;;6.40;;
55800;SDS011;41730;51.960;20.158;2023-04-01T16:10:09;9.40;;;5.90;;
55800;SDS011;41730;51.960;20.158;2023-04-01T16:12:54;8.90;;;5.50;;
55800;SDS011;41730;51.960;20.158;2023-04-01T16:15:34;8.70;;;5.70;;
55800;SDS011;41730;51.960;20.158;2023-04-01T16:18:19;9.20;;;5.50;;
55800;SDS011;41730;51.960;20.158;2023-04-01T16:21:01;11.90;;;6.30;;
55800;SDS011;41730;51.960;20.158;2023-04-01T16:23:37;10.50;;;6.40;;
55800;SDS011;41730;51.960;20.158;2023-04-01T16:26:16;14.00;;;7.10;;
55800;SDS011;41730;51.960;20.158;2023-04-01T16:28:53;10.00;;;6.40;;
55800;SDS011;41730;51.960;20.158;2023-04-01T16:31:31;13.10;;;7.10;;
55800;SDS011;41730;51.960;20.158;2023-04-01T16:34:06;10.10;;;5.70;;
55800;SDS011;41730;51.960;20.158;2023-04-01T16:36:44;9.70;;;6.70;;
55800;SDS011;41730;51.960;20.158;2023-04-01T16:39:26;10.90;;;6.20;;
55800;SDS011;41730;51.960;20.158;2023-04-01T16:42:11;11.00;;;6.40;;
55800;SDS011;41730;51.960;20.158;2023-04-01T16:44:48;8.60;;;5.10;;